sensor_id;sensor_type;location;lat;lon;timestamp;temperature;humidity
11047;DHT22;5576;50.008;10.596;2023-09-19T00:00:21;17.50;99.90
11047;DHT22;5576;50.008;10.596;2023-09-19T00:02:55;17.50;99.90
11047;DHT22;5576;50.008;10.596;2023-09-19T00:05:26;17.40;99.90
11047;DHT22;5576;50.008;10.596;2023-09-19T00:07:54;17.40;99.90
11047;DHT22;5576;50.008;10.596;2023-09-19T00:10:25;17.30;99.90
11047;DHT22;5576;50.008;10.596;2023-09-19T00:12:53;17.40;99.90
11047;DHT22;5576;50.008;10.596;2023-09-19T00:15:22;17.40;99.90
11047;DHT22;5576;50.008;10.596;2023-09-19T00:17:48;21.20;99.90
11047;DHT22;5576;50.008;10.596;2023-09-19T00:20:14;19.00;99.90
11047;DHT22;5576;50.008;10.596;2023-09-19T00:22:43;20.40;99.90
11047;DHT22;5576;50.008;10.596;2023-09-19T00:25:12;17.30;99.90
11047;DHT22;5576;50.008;10.596;2023-09-19T00:27:38;17.40;99.90
11047;DHT22;5576;50.008;10.596;2023-09-19T00:30:11;17.40;99.90
11047;DHT22;5576;50.008;10.596;2023-09-19T00:32:42;17.50;99.90
11047;DHT22;5576;50.008;10.596;2023-09-19T00:35:08;17.50;99.90
11047;DHT22;5576;50.008;10.596;2023-09-19T00:37:37;17.50;99.90
11047;DHT22;5576;50.008;10.596;2023-09-19T00:40:07;17.50;99.90
11047;DHT22;5576;50.008;10.596;2023-09-19T00:42:39;17.50;99.90
11047;DHT22;5576;50.008;10.596;2023-09-19T00:45:07;17.40;99.90
11047;DHT22;5576;50.008;10.596;2023-09-19T00:47:36;17.50;99.90
11047;DHT22;5576;50.008;10.596;2023-09-19T00:50:04;17.40;99.90
11047;DHT22;5576;50.008;10.596;2023-09-19T00:52:34;14.00;99.90
11047;DHT22;5576;50.008;10.596;2023-09-19T00:55:05;20.40;99.90
11047;DHT22;5576;50.008;10.596;2023-09-19T00:57:38;17.50;99.90
11047;DHT22;5576;50.008;10.596;2023-09-19T01:00:05;17.50;99.90
11047;DHT22;5576;50.008;10.596;2023-09-19T01:02:36;17.50;99.90
11047;DHT22;5576;50.008;10.596;2023-09-19T01:05:02;17.50;99.90
11047;DHT22;5576;50.008;10.596;2023-09-19T01:07:31;17.50;99.90
11047;DHT22;5576;50.008;10.596;2023-09-19T01:09:57;17.40;99.90
11047;DHT22;5576;50.008;10.596;2023-09-19T01:18:16;17.40;99.90
11047;DHT22;5576;50.008;10.596;2023-09-19T01:27:17;17.40;99.90
11047;DHT22;5576;50.008;10.596;2023-09-19T01:29:49;17.40;99.90
11047;DHT22;5576;50.008;10.596;2023-09-19T01:32:18;16.30;99.90
11047;DHT22;5576;50.008;10.596;2023-09-19T01:34:52;17.50;99.90
11047;DHT22;5576;50.008;10.596;2023-09-19T01:37:20;17.40;99.90
11047;DHT22;5576;50.008;10.596;2023-09-19T01:39:55;17.40;99.90
11047;DHT22;5576;50.008;10.596;2023-09-19T01:42:35;17.50;99.90
11047;DHT22;5576;50.008;10.596;2023-09-19T01:45:11;17.50;99.90
11047;DHT22;5576;50.008;10.596;2023-09-19T01:47:46;17.50;99.90
11047;DHT22;5576;50.008;10.596;2023-09-19T01:50:34;17.60;99.90
11047;DHT22;5576;50.008;10.596;2023-09-19T01:53:15;16.80;99.90
11047;DHT22;5576;50.008;10.596;2023-09-19T01:55:48;17.60;99.90
11047;DHT22;5576;50.008;10.596;2023-09-19T01:58:44;21.00;99.90
11047;DHT22;5576;50.008;10.596;2023-09-19T02:01:14;17.60;99.90
11047;DHT22;5576;50.008;10.596;2023-09-19T02:03:41;17.50;99.90
11047;DHT22;5576;50.008;10.596;2023-09-19T02:06:14;20.50;99.90
11047;DHT22;5576;50.008;10.596;2023-09-19T02:08:41;17.50;99.90
11047;DHT22;5576;50.008;10.596;2023-09-19T02:11:07;17.50;99.90
11047;DHT22;5576;50.008;10.596;2023-09-19T02:13:32;17.50;99.90
11047;DHT22;5576;50.008;10.596;2023-09-19T02:16:02;17.50;99.90
11047;DHT22;5576;50.008;10.596;2023-09-19T02:18:30;17.50;99.90
11047;DHT22;5576;50.008;10.596;2023-09-19T02:20:56;20.40;99.90
11047;DHT22;5576;50.008;10.596;2023-09-19T02:23:24;17.50;99.90
11047;DHT22;5576;50.008;10.596;2023-09-19T02:25:53;17.70;99.90
11047;DHT22;5576;50.008;10.596;2023-09-19T02:28:20;16.50;99.90
11047;DHT22;5576;50.008;10.596;2023-09-19T02:30:48;17.40;99.90
11047;DHT22;5576;50.008;10.596;2023-09-19T02:33:18;20.00;99.90
11047;DHT22;5576;50.008;10.596;2023-09-19T02:35:54;19.10;99.90
11047;DHT22;5576;50.008;10.596;2023-09-19T02:38:20;17.70;99.90
11047;DHT22;5576;50.008;10.596;2023-09-19T02:40:47;17.30;99.90
11047;DHT22;5576;50.008;10.596;2023-09-19T02:43:12;17.40;99.90
11047;DHT22;5576;50.008;10.596;2023-09-19T02:45:38;17.40;99.90
11047;DHT22;5576;50.008;10.596;2023-09-19T02:48:04;17.40;99.90
11047;DHT22;5576;50.008;10.596;2023-09-19T02:50:30;16.20;99.90
11047;DHT22;5576;50.008;10.596;2023-09-19T02:52:56;17.30;99.90
11047;DHT22;5576;50.008;10.596;2023-09-19T02:55:23;17.30;99.90
11047;DHT22;5576;50.008;10.596;2023-09-19T02:57:55;16.40;99.90
11047;DHT22;5576;50.008;10.596;2023-09-19T03:00:21;17.20;99.90
11047;DHT22;5576;50.008;10.596;2023-09-19T03:02:50;17.20;99.90
11047;DHT22;5576;50.008;10.596;2023-09-19T03:05:22;17.20;99.90
11047;DHT22;5576;50.008;10.596;2023-09-19T03:07:50;17.30;99.90
11047;DHT22;5576;50.008;10.596;2023-09-19T03:10:18;17.30;99.90
11047;DHT22;5576;50.008;10.596;2023-09-19T03:12:44;17.30;99.90
11047;DHT22;5576;50.008;10.596;2023-09-19T03:15:14;17.20;99.90
11047;DHT22;5576;50.008;10.596;2023-09-19T03:17:44;16.40;99.90
11047;DHT22;5576;50.008;10.596;2023-09-19T03:20:11;17.30;99.90
11047;DHT22;5576;50.008;10.596;2023-09-19T03:22:39;17.20;99.90
11047;DHT22;5576;50.008;10.596;2023-09-19T03:25:10;16.80;99.90
11047;DHT22;5576;50.008;10.596;2023-09-19T03:27:39;17.20;99.90
11047;DHT22;5576;50.008;10.596;2023-09-19T03:30:06;17.20;99.90
11047;DHT22;5576;50.008;10.596;2023-09-19T03:32:35;17.20;99.90
11047;DHT22;5576;50.008;10.596;2023-09-19T03:35:03;17.20;99.90
11047;DHT22;5576;50.008;10.596;2023-09-19T03:37:31;17.20;99.90
11047;DHT22;5576;50.008;10.596;2023-09-19T03:40:01;17.30;99.90
11047;DHT22;5576;50.008;10.596;2023-09-19T03:42:31;17.30;99.90
11047;DHT22;5576;50.008;10.596;2023-09-19T03:45:03;17.20;99.90
11047;DHT22;5576;50.008;10.596;2023-09-19T03:47:29;17.30;99.90
11047;DHT22;5576;50.008;10.596;2023-09-19T03:50:00;17.20;99.90
11047;DHT22;5576;50.008;10.596;2023-09-19T03:52:26;17.20;99.90
11047;DHT22;5576;50.008;10.596;2023-09-19T03:54:52;17.30;99.90
11047;DHT22;5576;50.008;10.596;2023-09-19T03:57:18;17.30;99.90
11047;DHT22;5576;50.008;10.596;2023-09-19T03:59:46;16.40;99.90
11047;DHT22;5576;50.008;10.596;2023-09-19T04:02:13;17.20;99.90
11047;DHT22;5576;50.008;10.596;2023-09-19T04:04:55;17.20;99.90
11047;DHT22;5576;50.008;10.596;2023-09-19T04:07:21;17.20;99.90
11047;DHT22;5576;50.008;10.596;2023-09-19T04:09:48;17.20;99.90
11047;DHT22;5576;50.008;10.596;2023-09-19T04:12:15;17.20;99.90
11047;DHT22;5576;50.008;10.596;2023-09-19T04:14:45;17.30;99.90
11047;DHT22;5576;50.008;10.596;2023-09-19T04:17:11;17.70;99.90
11047;DHT22;5576;50.008;10.596;2023-09-19T04:19:37;17.30;99.90
11047;DHT22;5576;50.008;10.596;2023-09-19T04:22:04;17.30;99.90
11047;DHT22;5576;50.008;10.596;2023-09-19T04:24:30;17.30;99.90
11047;DHT22;5576;50.008;10.596;2023-09-19T04:26:57;17.40;99.90
11047;DHT22;5576;50.008;10.596;2023-09-19T04:29:25;16.60;99.90
11047;DHT22;5576;50.008;10.596;2023-09-19T04:31:52;17.40;99.90
11047;DHT22;5576;50.008;10.596;2023-09-19T04:34:17;17.50;99.90
11047;DHT22;5576;50.008;10.596;2023-09-19T04:36:44;17.50;99.90
11047;DHT22;5576;50.008;10.596;2023-09-19T04:39:10;17.50;99.90
11047;DHT22;5576;50.008;10.596;2023-09-19T04:41:38;17.50;99.90
11047;DHT22;5576;50.008;10.596;2023-09-19T04:44:06;17.50;99.90
11047;DHT22;5576;50.008;10.596;2023-09-19T04:46:36;17.50;99.90
11047;DHT22;5576;50.008;10.596;2023-09-19T04:49:02;17.40;99.90
11047;DHT22;5576;50.008;10.596;2023-09-19T04:51:28;17.40;99.90
11047;DHT22;5576;50.008;10.596;2023-09-19T04:53:59;17.30;99.90
11047;DHT22;5576;50.008;10.596;2023-09-19T04:56:25;17.30;99.90
11047;DHT22;5576;50.008;10.596;2023-09-19T04:58:54;17.30;99.90
11047;DHT22;5576;50.008;10.596;2023-09-19T05:01:23;17.30;99.90
11047;DHT22;5576;50.008;10.596;2023-09-19T05:03:52;17.30;99.90
11047;DHT22;5576;50.008;10.596;2023-09-19T05:06:19;17.30;99.90
11047;DHT22;5576;50.008;10.596;2023-09-19T05:08:47;17.30;99.90
11047;DHT22;5576;50.008;10.596;2023-09-19T05:11:18;17.30;99.90
11047;DHT22;5576;50.008;10.596;2023-09-19T05:13:45;17.20;99.90
11047;DHT22;5576;50.008;10.596;2023-09-19T05:16:13;17.20;99.90
11047;DHT22;5576;50.008;10.596;2023-09-19T05:18:39;17.20;99.90
11047;DHT22;5576;50.008;10.596;2023-09-19T05:21:11;17.20;99.90
11047;DHT22;5576;50.008;10.596;2023-09-19T05:23:37;17.20;99.90
11047;DHT22;5576;50.008;10.596;2023-09-19T05:26:04;17.20;99.90
11047;DHT22;5576;50.008;10.596;2023-09-19T05:28:34;17.10;99.90
11047;DHT22;5576;50.008;10.596;2023-09-19T05:31:01;17.10;99.90
11047;DHT22;5576;50.008;10.596;2023-09-19T05:33:28;17.10;99.90
11047;DHT22;5576;50.008;10.596;2023-09-19T05:35:59;17.10;99.90
11047;DHT22;5576;50.008;10.596;2023-09-19T05:38:25;17.10;99.90
11047;DHT22;5576;50.008;10.596;2023-09-19T05:40:56;17.10;99.90
11047;DHT22;5576;50.008;10.596;2023-09-19T05:43:22;17.20;99.90
11047;DHT22;5576;50.008;10.596;2023-09-19T05:45:48;17.20;99.90
11047;DHT22;5576;50.008;10.596;2023-09-19T05:48:15;17.10;99.90
11047;DHT22;5576;50.008;10.596;2023-09-19T05:50:46;17.20;99.90
11047;DHT22;5576;50.008;10.596;2023-09-19T05:53:14;16.30;99.90
11047;DHT22;5576;50.008;10.596;2023-09-19T05:55:41;17.30;99.90
11047;DHT22;5576;50.008;10.596;2023-09-19T05:58:07;17.30;99.90
11047;DHT22;5576;50.008;10.596;2023-09-19T06:00:34;17.30;99.90
11047;DHT22;5576;50.008;10.596;2023-09-19T06:03:00;17.30;99.90
11047;DHT22;5576;50.008;10.596;2023-09-19T06:05:26;18.40;99.90
11047;DHT22;5576;50.008;10.596;2023-09-19T06:07:53;17.40;99.90
11047;DHT22;5576;50.008;10.596;2023-09-19T06:10:19;17.50;99.90
11047;DHT22;5576;50.008;10.596;2023-09-19T06:12:51;17.50;99.90
11047;DHT22;5576;50.008;10.596;2023-09-19T06:15:17;17.60;99.90
11047;DHT22;5576;50.008;10.596;2023-09-19T06:17:49;17.60;99.90
11047;DHT22;5576;50.008;10.596;2023-09-19T06:20:16;17.70;99.90
11047;DHT22;5576;50.008;10.596;2023-09-19T06:22:43;17.60;99.90
11047;DHT22;5576;50.008;10.596;2023-09-19T06:25:11;17.00;99.90
11047;DHT22;5576;50.008;10.596;2023-09-19T06:27:38;17.60;99.90
11047;DHT22;5576;50.008;10.596;2023-09-19T06:30:09;17.70;99.90
11047;DHT22;5576;50.008;10.596;2023-09-19T06:32:35;17.70;99.90
11047;DHT22;5576;50.008;10.596;2023-09-19T06:35:01;17.70;99.90
11047;DHT22;5576;50.008;10.596;2023-09-19T06:37:32;18.30;99.90
11047;DHT22;5576;50.008;10.596;2023-09-19T06:40:06;17.70;99.90
11047;DHT22;5576;50.008;10.596;2023-09-19T06:42:32;17.70;99.90
11047;DHT22;5576;50.008;10.596;2023-09-19T06:44:58;17.70;99.90
11047;DHT22;5576;50.008;10.596;2023-09-19T06:47:27;17.80;99.90
11047;DHT22;5576;50.008;10.596;2023-09-19T06:49:59;17.80;99.90
11047;DHT22;5576;50.008;10.596;2023-09-19T06:52:25;17.70;99.90
11047;DHT22;5576;50.008;10.596;2023-09-19T06:54:51;17.70;99.90
11047;DHT22;5576;50.008;10.596;2023-09-19T06:57:18;18.80;99.90
11047;DHT22;5576;50.008;10.596;2023-09-19T06:59:45;17.80;99.90
11047;DHT22;5576;50.008;10.596;2023-09-19T07:02:11;17.90;99.90
11047;DHT22;5576;50.008;10.596;2023-09-19T07:04:39;17.90;99.90
11047;DHT22;5576;50.008;10.596;2023-09-19T07:07:05;17.90;99.90
11047;DHT22;5576;50.008;10.596;2023-09-19T07:09:31;17.90;99.90
11047;DHT22;5576;50.008;10.596;2023-09-19T07:11:57;17.90;99.90
11047;DHT22;5576;50.008;10.596;2023-09-19T07:14:23;17.90;99.90
11047;DHT22;5576;50.008;10.596;2023-09-19T07:16:48;17.90;99.90
11047;DHT22;5576;50.008;10.596;2023-09-19T07:19:15;17.90;99.90
11047;DHT22;5576;50.008;10.596;2023-09-19T07:21:41;17.90;99.90
11047;DHT22;5576;50.008;10.596;2023-09-19T07:24:13;18.00;99.90
11047;DHT22;5576;50.008;10.596;2023-09-19T07:26:39;16.50;99.90
11047;DHT22;5576;50.008;10.596;2023-09-19T07:29:05;17.10;99.90
11047;DHT22;5576;50.008;10.596;2023-09-19T07:31:32;18.00;99.90
11047;DHT22;5576;50.008;10.596;2023-09-19T07:33:59;18.00;99.90
11047;DHT22;5576;50.008;10.596;2023-09-19T07:36:25;20.40;99.90
11047;DHT22;5576;50.008;10.596;2023-09-19T07:38:54;18.10;99.90
11047;DHT22;5576;50.008;10.596;2023-09-19T07:41:20;18.10;99.90
11047;DHT22;5576;50.008;10.596;2023-09-19T07:43:47;18.30;99.90
11047;DHT22;5576;50.008;10.596;2023-09-19T07:46:13;20.10;99.90
11047;DHT22;5576;50.008;10.596;2023-09-19T07:48:39;18.30;99.90
11047;DHT22;5576;50.008;10.596;2023-09-19T07:51:07;18.40;99.90
11047;DHT22;5576;50.008;10.596;2023-09-19T07:53:35;18.30;99.90
11047;DHT22;5576;50.008;10.596;2023-09-19T07:56:05;18.20;99.90
11047;DHT22;5576;50.008;10.596;2023-09-19T07:58:32;18.20;99.90
11047;DHT22;5576;50.008;10.596;2023-09-19T08:01:07;18.10;99.90
11047;DHT22;5576;50.008;10.596;2023-09-19T08:03:34;18.30;99.90
11047;DHT22;5576;50.008;10.596;2023-09-19T08:06:00;18.30;99.90
11047;DHT22;5576;50.008;10.596;2023-09-19T08:08:27;18.30;99.90
11047;DHT22;5576;50.008;10.596;2023-09-19T08:10:54;18.30;99.90
11047;DHT22;5576;50.008;10.596;2023-09-19T08:13:23;18.30;99.90
11047;DHT22;5576;50.008;10.596;2023-09-19T08:15:49;18.40;99.90
11047;DHT22;5576;50.008;10.596;2023-09-19T08:18:16;18.40;99.90
11047;DHT22;5576;50.008;10.596;2023-09-19T08:20:42;18.50;99.90
11047;DHT22;5576;50.008;10.596;2023-09-19T08:23:08;18.50;99.90
11047;DHT22;5576;50.008;10.596;2023-09-19T08:25:34;18.50;99.90
11047;DHT22;5576;50.008;10.596;2023-09-19T08:28:00;18.60;99.90
11047;DHT22;5576;50.008;10.596;2023-09-19T08:30:29;20.70;99.90
11047;DHT22;5576;50.008;10.596;2023-09-19T08:32:57;18.60;99.90
11047;DHT22;5576;50.008;10.596;2023-09-19T08:35:24;18.60;99.90
11047;DHT22;5576;50.008;10.596;2023-09-19T08:37:50;18.60;99.90
11047;DHT22;5576;50.008;10.596;2023-09-19T08:40:17;18.60;99.90
11047;DHT22;5576;50.008;10.596;2023-09-19T08:42:51;17.40;99.90
11047;DHT22;5576;50.008;10.596;2023-09-19T08:45:20;18.60;99.90
11047;DHT22;5576;50.008;10.596;2023-09-19T08:50:43;18.60;99.90
11047;DHT22;5576;50.008;10.596;2023-09-19T08:53:27;18.70;99.90
11047;DHT22;5576;50.008;10.596;2023-09-19T08:56:02;18.70;99.90
11047;DHT22;5576;50.008;10.596;2023-09-19T08:58:34;18.70;99.90
11047;DHT22;5576;50.008;10.596;2023-09-19T09:01:05;18.70;99.90
11047;DHT22;5576;50.008;10.596;2023-09-19T09:03:32;18.70;99.90
11047;DHT22;5576;50.008;10.596;2023-09-19T09:06:04;18.70;99.90
11047;DHT22;5576;50.008;10.596;2023-09-19T09:08:31;18.70;99.90
11047;DHT22;5576;50.008;10.596;2023-09-19T09:10:58;18.70;99.90
11047;DHT22;5576;50.008;10.596;2023-09-19T09:13:24;18.70;99.90
11047;DHT22;5576;50.008;10.596;2023-09-19T09:15:51;18.70;99.90
11047;DHT22;5576;50.008;10.596;2023-09-19T09:18:19;18.70;99.90
11047;DHT22;5576;50.008;10.596;2023-09-19T09:20:47;18.80;99.90
11047;DHT22;5576;50.008;10.596;2023-09-19T09:23:16;18.90;99.90
11047;DHT22;5576;50.008;10.596;2023-09-19T09:25:52;18.90;99.90
11047;DHT22;5576;50.008;10.596;2023-09-19T09:28:26;17.30;99.90
11047;DHT22;5576;50.008;10.596;2023-09-19T09:30:54;18.90;99.90
11047;DHT22;5576;50.008;10.596;2023-09-19T09:33:21;18.90;99.90
11047;DHT22;5576;50.008;10.596;2023-09-19T09:35:55;18.90;99.90
11047;DHT22;5576;50.008;10.596;2023-09-19T09:38:27;19.00;99.90
11047;DHT22;5576;50.008;10.596;2023-09-19T09:40:55;18.80;99.90
11047;DHT22;5576;50.008;10.596;2023-09-19T09:43:30;18.90;99.90
11047;DHT22;5576;50.008;10.596;2023-09-19T09:46:14;18.80;99.90
11047;DHT22;5576;50.008;10.596;2023-09-19T09:48:57;15.80;99.90
11047;DHT22;5576;50.008;10.596;2023-09-19T09:51:48;18.90;99.90
11047;DHT22;5576;50.008;10.596;2023-09-19T09:54:24;19.00;99.90
11047;DHT22;5576;50.008;10.596;2023-09-19T09:56:57;19.00;99.90
11047;DHT22;5576;50.008;10.596;2023-09-19T09:59:47;19.10;99.90
11047;DHT22;5576;50.008;10.596;2023-09-19T10:02:15;19.20;99.90
11047;DHT22;5576;50.008;10.596;2023-09-19T10:04:48;19.50;99.90
11047;DHT22;5576;50.008;10.596;2023-09-19T10:07:27;19.10;99.90
11047;DHT22;5576;50.008;10.596;2023-09-19T10:10:02;19.10;99.90
11047;DHT22;5576;50.008;10.596;2023-09-19T10:12:48;18.20;99.90
11047;DHT22;5576;50.008;10.596;2023-09-19T10:15:16;19.10;99.90
11047;DHT22;5576;50.008;10.596;2023-09-19T10:17:44;19.10;99.90
11047;DHT22;5576;50.008;10.596;2023-09-19T10:20:14;19.20;99.90
11047;DHT22;5576;50.008;10.596;2023-09-19T10:22:53;18.70;99.90
11047;DHT22;5576;50.008;10.596;2023-09-19T10:25:25;19.50;99.90
11047;DHT22;5576;50.008;10.596;2023-09-19T10:27:52;19.50;99.90
11047;DHT22;5576;50.008;10.596;2023-09-19T10:30:30;19.50;99.90
11047;DHT22;5576;50.008;10.596;2023-09-19T10:33:01;19.60;99.90
11047;DHT22;5576;50.008;10.596;2023-09-19T10:35:28;19.60;99.90
11047;DHT22;5576;50.008;10.596;2023-09-19T10:37:57;19.70;99.90
11047;DHT22;5576;50.008;10.596;2023-09-19T10:40:27;19.80;99.90
11047;DHT22;5576;50.008;10.596;2023-09-19T10:43:01;19.80;99.90
11047;DHT22;5576;50.008;10.596;2023-09-19T10:45:33;19.80;99.90
11047;DHT22;5576;50.008;10.596;2023-09-19T10:48:00;19.90;99.90
11047;DHT22;5576;50.008;10.596;2023-09-19T10:50:29;19.90;99.90
11047;DHT22;5576;50.008;10.596;2023-09-19T10:53:02;20.00;99.90
11047;DHT22;5576;50.008;10.596;2023-09-19T10:55:31;20.00;99.90
11047;DHT22;5576;50.008;10.596;2023-09-19T10:57:59;20.20;99.90
11047;DHT22;5576;50.008;10.596;2023-09-19T11:00:26;21.40;99.90
11047;DHT22;5576;50.008;10.596;2023-09-19T11:03:20;20.30;99.90
11047;DHT22;5576;50.008;10.596;2023-09-19T11:06:07;23.10;99.90
11047;DHT22;5576;50.008;10.596;2023-09-19T11:08:56;20.30;99.90
11047;DHT22;5576;50.008;10.596;2023-09-19T11:11:40;20.20;99.90
11047;DHT22;5576;50.008;10.596;2023-09-19T11:14:16;20.30;99.90
11047;DHT22;5576;50.008;10.596;2023-09-19T11:30:48;20.60;99.90
11047;DHT22;5576;50.008;10.596;2023-09-19T11:33:24;20.60;99.90
11047;DHT22;5576;50.008;10.596;2023-09-19T11:36:15;20.60;99.90
11047;DHT22;5576;50.008;10.596;2023-09-19T11:46:30;20.70;99.90
11047;DHT22;5576;50.008;10.596;2023-09-19T11:49:06;20.70;99.90
11047;DHT22;5576;50.008;10.596;2023-09-19T11:51:43;20.60;99.90
11047;DHT22;5576;50.008;10.596;2023-09-19T11:54:11;20.50;99.90
11047;DHT22;5576;50.008;10.596;2023-09-19T11:56:49;20.50;99.90
11047;DHT22;5576;50.008;10.596;2023-09-19T11:59:21;20.50;99.90
11047;DHT22;5576;50.008;10.596;2023-09-19T12:01:52;20.50;99.90
11047;DHT22;5576;50.008;10.596;2023-09-19T12:04:43;20.60;99.90
11047;DHT22;5576;50.008;10.596;2023-09-19T12:07:18;20.70;99.90
11047;DHT22;5576;50.008;10.596;2023-09-19T12:09:47;20.80;99.90
11047;DHT22;5576;50.008;10.596;2023-09-19T12:12:22;20.90;99.90
11047;DHT22;5576;50.008;10.596;2023-09-19T12:14:49;20.90;99.90
11047;DHT22;5576;50.008;10.596;2023-09-19T12:17:16;20.80;99.90
11047;DHT22;5576;50.008;10.596;2023-09-19T12:19:51;20.90;99.90
11047;DHT22;5576;50.008;10.596;2023-09-19T12:22:17;20.90;99.90
11047;DHT22;5576;50.008;10.596;2023-09-19T12:24:46;20.80;99.90
11047;DHT22;5576;50.008;10.596;2023-09-19T12:27:12;20.90;99.90
11047;DHT22;5576;50.008;10.596;2023-09-19T12:29:47;21.10;99.90
11047;DHT22;5576;50.008;10.596;2023-09-19T12:32:17;21.20;99.90
11047;DHT22;5576;50.008;10.596;2023-09-19T12:34:51;19.20;99.90
11047;DHT22;5576;50.008;10.596;2023-09-19T12:37:18;21.30;99.90
11047;DHT22;5576;50.008;10.596;2023-09-19T12:39:50;20.30;99.90
11047;DHT22;5576;50.008;10.596;2023-09-19T12:42:20;21.40;99.90
11047;DHT22;5576;50.008;10.596;2023-09-19T12:44:49;21.40;99.90
11047;DHT22;5576;50.008;10.596;2023-09-19T12:47:18;21.40;99.90
11047;DHT22;5576;50.008;10.596;2023-09-19T12:50:07;21.50;99.90
11047;DHT22;5576;50.008;10.596;2023-09-19T12:52:36;20.40;99.90
11047;DHT22;5576;50.008;10.596;2023-09-19T12:55:02;21.70;99.90
11047;DHT22;5576;50.008;10.596;2023-09-19T12:57:28;21.70;99.90
11047;DHT22;5576;50.008;10.596;2023-09-19T12:59:55;21.80;99.90
11047;DHT22;5576;50.008;10.596;2023-09-19T13:02:21;23.20;99.90
11047;DHT22;5576;50.008;10.596;2023-09-19T13:04:53;22.10;99.90
11047;DHT22;5576;50.008;10.596;2023-09-19T13:07:42;22.20;99.90
11047;DHT22;5576;50.008;10.596;2023-09-19T13:10:09;22.10;99.90
11047;DHT22;5576;50.008;10.596;2023-09-19T13:12:37;22.10;99.90
11047;DHT22;5576;50.008;10.596;2023-09-19T13:15:09;22.00;99.90
11047;DHT22;5576;50.008;10.596;2023-09-19T13:17:46;22.10;99.90
11047;DHT22;5576;50.008;10.596;2023-09-19T13:20:29;26.10;99.90
11047;DHT22;5576;50.008;10.596;2023-09-19T13:22:57;22.30;99.90
11047;DHT22;5576;50.008;10.596;2023-09-19T13:25:26;25.10;99.90
11047;DHT22;5576;50.008;10.596;2023-09-19T13:27:58;22.30;99.90
11047;DHT22;5576;50.008;10.596;2023-09-19T13:30:29;22.30;99.90
11047;DHT22;5576;50.008;10.596;2023-09-19T13:33:05;22.40;99.90
11047;DHT22;5576;50.008;10.596;2023-09-19T13:35:33;22.40;99.90
11047;DHT22;5576;50.008;10.596;2023-09-19T13:37:59;22.30;99.90
11047;DHT22;5576;50.008;10.596;2023-09-19T13:40:25;22.30;99.90
11047;DHT22;5576;50.008;10.596;2023-09-19T13:42:59;19.30;99.90
11047;DHT22;5576;50.008;10.596;2023-09-19T13:45:25;22.20;99.90
11047;DHT22;5576;50.008;10.596;2023-09-19T13:47:52;22.20;99.90
11047;DHT22;5576;50.008;10.596;2023-09-19T13:50:19;22.20;99.90
11047;DHT22;5576;50.008;10.596;2023-09-19T13:52:50;22.20;99.90
11047;DHT22;5576;50.008;10.596;2023-09-19T13:55:17;22.20;99.90
11047;DHT22;5576;50.008;10.596;2023-09-19T13:57:47;22.10;99.90
11047;DHT22;5576;50.008;10.596;2023-09-19T14:00:18;22.20;99.90
11047;DHT22;5576;50.008;10.596;2023-09-19T14:02:44;22.30;99.90
11047;DHT22;5576;50.008;10.596;2023-09-19T14:05:12;22.50;99.90
11047;DHT22;5576;50.008;10.596;2023-09-19T14:07:41;22.50;99.90
11047;DHT22;5576;50.008;10.596;2023-09-19T14:10:07;22.50;99.90
11047;DHT22;5576;50.008;10.596;2023-09-19T14:12:34;22.60;99.90
11047;DHT22;5576;50.008;10.596;2023-09-19T14:15:00;22.70;99.90
11047;DHT22;5576;50.008;10.596;2023-09-19T14:17:26;22.70;99.90
11047;DHT22;5576;50.008;10.596;2023-09-19T14:19:55;21.80;99.90
11047;DHT22;5576;50.008;10.596;2023-09-19T14:22:21;22.90;99.90
11047;DHT22;5576;50.008;10.596;2023-09-19T14:24:47;23.00;99.90
11047;DHT22;5576;50.008;10.596;2023-09-19T14:27:13;23.10;99.90
11047;DHT22;5576;50.008;10.596;2023-09-19T14:29:39;23.20;99.90
11047;DHT22;5576;50.008;10.596;2023-09-19T14:32:08;22.90;99.90
11047;DHT22;5576;50.008;10.596;2023-09-19T14:34:33;22.80;99.90
11047;DHT22;5576;50.008;10.596;2023-09-19T14:37:02;22.80;99.90
11047;DHT22;5576;50.008;10.596;2023-09-19T14:39:30;22.90;99.90
11047;DHT22;5576;50.008;10.596;2023-09-19T14:41:56;19.70;99.90
11047;DHT22;5576;50.008;10.596;2023-09-19T14:44:22;21.80;99.90
11047;DHT22;5576;50.008;10.596;2023-09-19T14:46:48;22.80;99.90
11047;DHT22;5576;50.008;10.596;2023-09-19T14:49:13;22.70;99.90
11047;DHT22;5576;50.008;10.596;2023-09-19T14:51:41;23.00;99.90
11047;DHT22;5576;50.008;10.596;2023-09-19T14:54:07;22.80;99.90
11047;DHT22;5576;50.008;10.596;2023-09-19T14:56:33;22.80;99.90
11047;DHT22;5576;50.008;10.596;2023-09-19T14:59:04;23.70;99.90
11047;DHT22;5576;50.008;10.596;2023-09-19T15:01:32;22.50;99.90
11047;DHT22;5576;50.008;10.596;2023-09-19T15:03:58;22.70;99.90
11047;DHT22;5576;50.008;10.596;2023-09-19T15:06:28;22.70;99.90
11047;DHT22;5576;50.008;10.596;2023-09-19T15:08:54;22.70;99.90
11047;DHT22;5576;50.008;10.596;2023-09-19T15:11:20;22.70;99.90
11047;DHT22;5576;50.008;10.596;2023-09-19T15:13:47;23.70;99.90
11047;DHT22;5576;50.008;10.596;2023-09-19T15:16:13;22.50;99.90
11047;DHT22;5576;50.008;10.596;2023-09-19T15:18:41;22.30;99.90
11047;DHT22;5576;50.008;10.596;2023-09-19T15:21:09;22.20;99.90
11047;DHT22;5576;50.008;10.596;2023-09-19T15:23:39;22.20;99.90
11047;DHT22;5576;50.008;10.596;2023-09-19T15:26:07;22.30;99.90
11047;DHT22;5576;50.008;10.596;2023-09-19T15:28:34;22.40;99.90
11047;DHT22;5576;50.008;10.596;2023-09-19T15:33:30;18.30;99.90
11047;DHT22;5576;50.008;10.596;2023-09-19T15:36:13;22.30;99.90
11047;DHT22;5576;50.008;10.596;2023-09-19T15:41:30;22.20;99.90
11047;DHT22;5576;50.008;10.596;2023-09-19T15:43:57;22.50;99.90
11047;DHT22;5576;50.008;10.596;2023-09-19T15:46:25;22.60;99.90
11047;DHT22;5576;50.008;10.596;2023-09-19T15:48:56;22.70;99.90
11047;DHT22;5576;50.008;10.596;2023-09-19T15:51:26;22.60;99.90
11047;DHT22;5576;50.008;10.596;2023-09-19T15:53:54;22.80;99.90
11047;DHT22;5576;50.008;10.596;2023-09-19T15:56:22;22.80;99.90
11047;DHT22;5576;50.008;10.596;2023-09-19T15:58:50;23.00;99.90
11047;DHT22;5576;50.008;10.596;2023-09-19T16:01:17;19.10;99.90
11047;DHT22;5576;50.008;10.596;2023-09-19T16:03:46;23.10;99.90
11047;DHT22;5576;50.008;10.596;2023-09-19T16:06:18;23.10;99.90
11047;DHT22;5576;50.008;10.596;2023-09-19T16:08:49;23.10;99.90
11047;DHT22;5576;50.008;10.596;2023-09-19T16:11:15;23.20;99.90
11047;DHT22;5576;50.008;10.596;2023-09-19T16:13:42;23.30;99.90
11047;DHT22;5576;50.008;10.596;2023-09-19T16:16:09;20.10;99.90
11047;DHT22;5576;50.008;10.596;2023-09-19T16:18:39;23.20;99.90
11047;DHT22;5576;50.008;10.596;2023-09-19T16:21:06;23.20;99.90
11047;DHT22;5576;50.008;10.596;2023-09-19T16:23:36;22.80;99.90
11047;DHT22;5576;50.008;10.596;2023-09-19T16:26:07;22.70;99.90